createdAt,value
2018-11-27T00:00:25.925Z,3.40
2018-11-27T00:02:58.515Z,3.40
2018-11-27T00:05:26.961Z,3.40
2018-11-27T00:07:55.302Z,3.40
2018-11-27T00:10:23.713Z,3.40
2018-11-27T00:12:52.118Z,3.40
2018-11-27T00:15:20.509Z,3.40
2018-11-27T00:17:48.847Z,3.40
2018-11-27T00:20:17.255Z,3.40
2018-11-27T00:22:45.570Z,3.40
2018-11-27T00:25:15.688Z,3.40
2018-11-27T00:27:43.986Z,3.40
2018-11-27T00:30:13.182Z,3.40
2018-11-27T00:32:41.509Z,3.40
2018-11-27T00:35:14.719Z,3.40
2018-11-27T00:37:43.129Z,3.40
2018-11-27T00:40:15.514Z,3.40
2018-11-27T00:42:44.121Z,3.40
2018-11-27T00:45:15.449Z,3.40
2018-11-27T00:47:44.532Z,3.40
2018-11-27T00:50:15.799Z,3.40
2018-11-27T00:52:44.246Z,3.40
2018-11-27T00:55:13.692Z,3.40
2018-11-27T00:57:42.706Z,3.40
2018-11-27T01:00:14.929Z,3.40
2018-11-27T01:02:43.351Z,3.40
2018-11-27T01:05:12.683Z,3.40
2018-11-27T01:07:41.143Z,3.40
2018-11-27T01:10:13.299Z,3.40
2018-11-27T01:12:41.819Z,3.40
2018-11-27T01:15:11.403Z,3.40
2018-11-27T01:17:40.996Z,3.40
2018-11-27T01:20:12.141Z,3.40
2018-11-27T01:22:40.638Z,3.40
2018-11-27T01:25:10.460Z,3.40
2018-11-27T01:27:38.891Z,3.40
2018-11-27T01:30:14.938Z,3.40
2018-11-27T01:32:43.467Z,3.40
2018-11-27T01:35:20.623Z,3.40
2018-11-27T01:37:50.031Z,3.40
2018-11-27T01:40:20.489Z,3.40
2018-11-27T01:42:50.894Z,3.40
2018-11-27T01:45:20.195Z,3.40
2018-11-27T01:47:48.707Z,3.40
2018-11-27T01:50:17.791Z,3.40
2018-11-27T01:52:46.149Z,3.40
2018-11-27T01:55:15.401Z,3.40
2018-11-27T01:57:43.740Z,3.30
2018-11-27T02:00:16.629Z,3.30
2018-11-27T02:02:44.928Z,3.30
2018-11-27T02:05:13.994Z,3.30
2018-11-27T02:07:42.262Z,3.30
2018-11-27T02:10:12.544Z,3.30
2018-11-27T02:12:42.177Z,3.30
2018-11-27T02:15:17.549Z,3.30
2018-11-27T02:17:45.943Z,3.30
2018-11-27T02:20:15.429Z,3.30
2018-11-27T02:22:43.727Z,3.30
2018-11-27T02:25:21.793Z,3.30
2018-11-27T02:27:50.126Z,3.30
2018-11-27T02:30:20.492Z,3.30
2018-11-27T02:32:48.751Z,3.30
2018-11-27T02:35:17.901Z,3.30
2018-11-27T02:37:46.843Z,3.30
2018-11-27T02:40:17.224Z,3.20
2018-11-27T02:42:45.528Z,3.20
2018-11-27T02:45:15.008Z,3.20
2018-11-27T02:47:43.667Z,3.20
2018-11-27T02:50:12.830Z,3.20
2018-11-27T02:52:41.157Z,3.20
2018-11-27T02:55:12.293Z,3.20
2018-11-27T02:57:40.642Z,3.20
2018-11-27T03:00:17.363Z,3.20
2018-11-27T03:02:45.721Z,3.20
2018-11-27T03:05:16.313Z,3.20
2018-11-27T03:07:44.822Z,3.20
2018-11-27T03:10:14.093Z,3.20
2018-11-27T03:12:42.414Z,3.20
2018-11-27T03:15:12.904Z,3.20
2018-11-27T03:17:41.301Z,3.30
2018-11-27T03:20:10.695Z,3.20
2018-11-27T03:22:39.271Z,3.30
2018-11-27T03:25:09.540Z,3.20
2018-11-27T03:27:37.857Z,3.20
2018-11-27T03:30:09.061Z,3.20
2018-11-27T03:32:37.341Z,3.20
2018-11-27T03:35:07.519Z,3.20
2018-11-27T03:37:35.829Z,3.20
2018-11-27T03:40:04.893Z,3.20
2018-11-27T03:42:33.171Z,3.20
2018-11-27T03:45:01.466Z,3.20
2018-11-27T03:47:29.743Z,3.20
2018-11-27T03:49:58.022Z,3.20
2018-11-27T03:52:26.300Z,3.20
2018-11-27T03:55:01.251Z,3.20
2018-11-27T03:57:29.614Z,3.20
2018-11-27T03:59:57.900Z,3.20
2018-11-27T04:02:26.344Z,3.20
2018-11-27T04:05:01.286Z,3.20
2018-11-27T04:07:33.438Z,3.20
2018-11-27T04:10:01.700Z,3.10
2018-11-27T04:12:29.997Z,3.20
2018-11-27T04:14:58.278Z,3.20
2018-11-27T04:17:26.530Z,3.20
2018-11-27T04:19:54.832Z,3.20
2018-11-27T04:22:25.962Z,3.20
2018-11-27T04:24:54.467Z,3.20
2018-11-27T04:27:24.108Z,3.10
2018-11-27T04:29:53.393Z,3.10
2018-11-27T04:32:21.670Z,3.10
2018-11-27T04:34:49.972Z,3.10
2018-11-27T04:37:18.280Z,3.10
2018-11-27T04:39:46.612Z,3.10
2018-11-27T04:42:14.931Z,3.10
2018-11-27T04:44:43.779Z,3.10
2018-11-27T04:47:12.149Z,3.10
2018-11-27T04:49:40.428Z,3.10
2018-11-27T04:52:08.769Z,3.10
2018-11-27T04:54:37.096Z,3.10
2018-11-27T04:57:05.397Z,3.10
2018-11-27T04:59:33.652Z,3.10
2018-11-27T05:02:01.943Z,3.10
2018-11-27T05:04:30.312Z,3.10
2018-11-27T05:06:58.558Z,3.10
2018-11-27T05:09:27.974Z,3.10
2018-11-27T05:11:56.266Z,3.10
2018-11-27T05:14:24.570Z,3.10
2018-11-27T05:16:53.047Z,3.10
2018-11-27T05:19:22.348Z,3.10
2018-11-27T05:21:50.616Z,3.10
2018-11-27T05:24:19.028Z,3.10
2018-11-27T05:26:47.321Z,3.10
2018-11-27T05:29:15.601Z,3.10
2018-11-27T05:31:44.005Z,3.10
2018-11-27T05:34:12.408Z,3.10
2018-11-27T05:36:40.664Z,3.10
2018-11-27T05:39:09.468Z,3.00
2018-11-27T05:41:37.831Z,3.00
2018-11-27T05:44:07.832Z,3.00
2018-11-27T05:46:36.090Z,3.00
2018-11-27T05:49:04.426Z,3.00
2018-11-27T05:51:33.331Z,3.00
2018-11-27T05:54:01.588Z,3.00
2018-11-27T05:56:29.921Z,3.00
2018-11-27T05:58:58.308Z,3.00
2018-11-27T06:01:26.584Z,3.00
2018-11-27T06:03:54.936Z,3.00
2018-11-27T06:06:23.252Z,3.00
2018-11-27T06:08:51.642Z,3.00
2018-11-27T06:11:20.080Z,2.90
2018-11-27T06:13:48.529Z,3.00
2018-11-27T06:16:17.000Z,2.90
2018-11-27T06:18:45.383Z,2.90
2018-11-27T06:21:13.825Z,2.90
2018-11-27T06:23:42.924Z,2.90
2018-11-27T06:26:11.208Z,2.90
2018-11-27T06:28:39.533Z,2.90
2018-11-27T06:31:07.958Z,2.90
2018-11-27T06:33:36.233Z,2.90
2018-11-27T06:36:04.591Z,2.90
2018-11-27T06:38:32.952Z,2.90
2018-11-27T06:41:01.288Z,2.90
2018-11-27T06:43:29.559Z,2.80
2018-11-27T06:45:57.890Z,2.90
2018-11-27T06:48:26.172Z,2.80
2018-11-27T06:50:54.508Z,2.80
2018-11-27T06:53:22.845Z,2.80
2018-11-27T06:55:51.159Z,2.80
2018-11-27T06:58:19.477Z,2.80
2018-11-27T07:00:47.789Z,2.80
2018-11-27T07:03:16.081Z,2.80
2018-11-27T07:05:44.424Z,2.80
2018-11-27T07:08:12.691Z,2.80
2018-11-27T07:10:42.678Z,2.70
2018-11-27T07:13:15.564Z,2.70
2018-11-27T07:15:44.078Z,2.80
2018-11-27T07:18:12.412Z,2.70
2018-11-27T07:20:40.826Z,2.70
2018-11-27T07:23:09.212Z,2.70
2018-11-27T07:25:37.827Z,2.70
2018-11-27T07:28:06.396Z,2.70
2018-11-27T07:30:34.846Z,2.70
2018-11-27T07:33:03.246Z,2.70
2018-11-27T07:35:31.587Z,2.70
2018-11-27T07:37:59.901Z,2.70
2018-11-27T07:40:28.797Z,2.80
2018-11-27T07:42:58.313Z,2.80
2018-11-27T07:45:26.623Z,2.80
2018-11-27T07:47:54.893Z,2.80
2018-11-27T07:50:23.281Z,2.80
2018-11-27T07:52:51.655Z,2.80
2018-11-27T07:55:22.223Z,2.80
2018-11-27T07:57:51.583Z,2.80
2018-11-27T08:00:22.524Z,2.80
2018-11-27T08:02:53.306Z,2.80
2018-11-27T08:05:23.098Z,2.80
2018-11-27T08:07:52.948Z,2.80
2018-11-27T08:10:22.345Z,2.80
2018-11-27T08:12:50.745Z,2.80
2018-11-27T08:15:21.285Z,2.80
2018-11-27T08:17:49.583Z,2.90
2018-11-27T08:20:35.370Z,2.90
2018-11-27T08:23:04.239Z,2.90
2018-11-27T08:25:32.572Z,2.90
2018-11-27T08:28:01.097Z,3.00
2018-11-27T08:30:29.488Z,3.00
2018-11-27T08:32:57.946Z,3.00
2018-11-27T08:35:28.519Z,3.00
2018-11-27T08:37:58.801Z,3.00
2018-11-27T08:40:28.558Z,3.00
2018-11-27T08:42:56.871Z,3.00
2018-11-27T08:45:25.544Z,3.00
2018-11-27T08:47:54.812Z,3.00
2018-11-27T08:50:24.046Z,3.10
2018-11-27T08:53:08.285Z,3.10
2018-11-27T08:55:41.687Z,3.10
2018-11-27T08:58:14.520Z,3.10
2018-11-27T09:00:42.822Z,3.10
2018-11-27T09:03:11.172Z,3.10
2018-11-27T09:05:39.480Z,3.10
2018-11-27T09:08:07.858Z,3.10
2018-11-27T09:10:36.474Z,3.10
2018-11-27T09:13:05.848Z,3.10
2018-11-27T09:15:34.163Z,3.20
2018-11-27T09:18:12.059Z,3.20
2018-11-27T09:20:40.401Z,3.20
2018-11-27T09:23:08.693Z,3.20
2018-11-27T09:25:36.980Z,3.30
2018-11-27T09:28:06.053Z,3.20
2018-11-27T09:30:34.370Z,3.30
2018-11-27T09:33:02.754Z,3.30
2018-11-27T09:35:31.617Z,3.30
2018-11-27T09:38:00.655Z,3.30
2018-11-27T09:40:28.974Z,3.40
2018-11-27T09:42:57.296Z,3.40
2018-11-27T09:45:25.781Z,3.40
2018-11-27T09:47:56.480Z,3.40
2018-11-27T09:50:24.867Z,3.40
2018-11-27T09:52:53.192Z,3.40
2018-11-27T09:55:25.527Z,3.40
2018-11-27T09:57:58.744Z,3.40
2018-11-27T10:00:26.010Z,3.40
2018-11-27T10:03:01.313Z,3.40
2018-11-27T10:05:29.608Z,3.40
2018-11-27T10:07:57.958Z,3.40
2018-11-27T10:10:26.675Z,3.40
2018-11-27T10:12:54.974Z,3.50
2018-11-27T10:15:24.454Z,3.50
2018-11-27T10:17:54.862Z,3.50
2018-11-27T10:20:24.653Z,3.50
2018-11-27T10:22:52.934Z,3.50
2018-11-27T10:25:21.268Z,3.60
2018-11-27T10:27:49.570Z,3.60
2018-11-27T10:30:22.073Z,3.60
2018-11-27T10:32:52.072Z,3.70
2018-11-27T10:35:25.255Z,3.60
2018-11-27T10:37:53.605Z,3.70
2018-11-27T10:40:22.006Z,3.70
2018-11-27T10:42:50.598Z,3.70
2018-11-27T10:45:19.768Z,3.80
2018-11-27T10:47:49.011Z,3.90
2018-11-27T10:50:17.831Z,4.00
2018-11-27T10:52:47.128Z,4.10
2018-11-27T10:55:16.264Z,4.00
2018-11-27T10:57:44.859Z,4.10
2018-11-27T11:00:32.939Z,4.00
2018-11-27T11:03:06.963Z,4.10
2018-11-27T11:05:37.146Z,4.10
2018-11-27T11:08:06.200Z,4.20
2018-11-27T11:10:34.492Z,4.20
2018-11-27T11:13:08.173Z,4.20
2018-11-27T11:15:36.524Z,4.30
2018-11-27T11:18:04.807Z,4.30
2018-11-27T11:20:33.498Z,4.40
2018-11-27T11:23:01.767Z,4.40
2018-11-27T11:25:30.121Z,4.40
2018-11-27T11:27:58.939Z,4.40
2018-11-27T11:30:27.216Z,4.40
2018-11-27T11:32:55.529Z,4.30
2018-11-27T11:35:23.800Z,4.40
2018-11-27T11:37:52.137Z,4.40
2018-11-27T11:40:22.848Z,4.40
2018-11-27T11:42:52.412Z,4.50
2018-11-27T11:45:20.764Z,4.50
2018-11-27T11:47:49.173Z,4.40
2018-11-27T11:50:23.575Z,4.30
2018-11-27T11:52:56.355Z,4.40
2018-11-27T11:55:24.681Z,4.40
2018-11-27T11:57:53.109Z,4.40
2018-11-27T12:00:24.342Z,4.30
2018-11-27T12:02:52.708Z,4.30
2018-11-27T12:05:25.089Z,4.30
2018-11-27T12:07:49.343Z,4.40
2018-11-27T12:10:17.690Z,4.30
2018-11-27T12:12:47.407Z,4.30
2018-11-27T12:15:17.515Z,4.30
2018-11-27T12:17:46.467Z,4.30
2018-11-27T12:20:15.774Z,4.30
2018-11-27T12:22:46.182Z,4.20
2018-11-27T12:25:14.590Z,4.20
2018-11-27T12:27:43.977Z,4.20
2018-11-27T12:30:13.703Z,4.20
2018-11-27T12:32:43.240Z,4.30
2018-11-27T12:35:12.100Z,4.40
2018-11-27T12:37:40.475Z,4.50
2018-11-27T12:40:13.146Z,4.50
2018-11-27T12:42:41.483Z,4.60
2018-11-27T12:45:14.722Z,4.60
2018-11-27T12:47:43.188Z,4.70
2018-11-27T12:50:44.261Z,4.80
2018-11-27T12:53:16.703Z,5.10
2018-11-27T12:55:43.077Z,5.40
2018-11-27T12:58:11.364Z,5.70
2018-11-27T13:00:39.683Z,5.80
2018-11-27T13:03:08.010Z,5.80
2018-11-27T13:05:39.631Z,6.10
2018-11-27T13:08:13.457Z,6.10
2018-11-27T13:10:41.786Z,6.40
2018-11-27T13:13:10.203Z,6.30
2018-11-27T13:15:39.428Z,6.40
2018-11-27T13:18:08.960Z,6.30
2018-11-27T13:20:37.432Z,6.20
2018-11-27T13:23:05.880Z,5.80
2018-11-27T13:25:34.163Z,5.70
2018-11-27T13:28:02.507Z,5.60
2018-11-27T13:31:07.879Z,5.70
2018-11-27T13:33:43.157Z,5.90
2018-11-27T13:36:11.571Z,6.10
2018-11-27T13:38:39.928Z,6.10
2018-11-27T13:41:08.323Z,6.20
2018-11-27T13:43:36.672Z,6.00
2018-11-27T13:46:05.752Z,6.20
2018-11-27T13:48:34.038Z,6.20
2018-11-27T13:51:02.334Z,6.20
2018-11-27T13:53:30.642Z,6.40
2018-11-27T13:55:58.936Z,6.50
2018-11-27T13:58:27.373Z,6.60
2018-11-27T14:00:55.670Z,7.00
2018-11-27T14:03:23.947Z,7.40
2018-11-27T14:05:52.279Z,7.60
2018-11-27T14:08:20.788Z,7.50
2018-11-27T14:10:49.294Z,7.10
2018-11-27T14:13:17.659Z,6.40
2018-11-27T14:15:45.975Z,5.90
2018-11-27T14:18:14.300Z,5.90
2018-11-27T14:20:42.639Z,5.90
2018-11-27T14:23:13.047Z,5.80
2018-11-27T14:25:41.371Z,5.70
2018-11-27T14:28:09.733Z,5.60
2018-11-27T14:30:38.100Z,5.50
2018-11-27T14:33:06.407Z,5.40
2018-11-27T14:35:34.841Z,5.40
2018-11-27T14:38:03.159Z,5.40
2018-11-27T14:40:31.472Z,5.40
2018-11-27T14:42:59.769Z,5.30
2018-11-27T14:45:28.113Z,5.20
2018-11-27T14:47:58.040Z,5.00
2018-11-27T14:50:26.460Z,4.90
2018-11-27T14:52:54.788Z,4.70
2018-11-27T14:55:31.085Z,4.60
2018-11-27T14:57:59.403Z,4.40
2018-11-27T15:00:28.247Z,4.30
2018-11-27T15:02:56.643Z,4.10
2018-11-27T15:05:27.596Z,4.00
2018-11-27T15:07:55.855Z,3.90
2018-11-27T15:10:24.152Z,3.80
2018-11-27T15:12:52.578Z,3.70
2018-11-27T15:15:20.917Z,3.60
2018-11-27T15:17:49.183Z,3.60
2018-11-27T15:20:18.828Z,3.50
2018-11-27T15:22:47.202Z,3.40
2018-11-27T15:25:15.547Z,3.30
2018-11-27T15:27:43.902Z,3.30
2018-11-27T15:30:19.145Z,3.20
2018-11-27T15:32:48.437Z,3.10
2018-11-27T15:35:16.790Z,3.00
2018-11-27T15:37:45.126Z,2.90
2018-11-27T15:40:22.395Z,2.90
2018-11-27T15:42:51.607Z,2.80
2018-11-27T15:45:22.186Z,2.70
2018-11-27T15:47:50.508Z,2.60
2018-11-27T15:50:18.848Z,2.60
2018-11-27T15:52:47.326Z,2.50
2018-11-27T15:55:19.752Z,2.40
2018-11-27T15:57:50.043Z,2.40
2018-11-27T16:00:19.817Z,2.30
2018-11-27T16:02:48.293Z,2.30
2018-11-27T16:05:16.949Z,2.20
2018-11-27T16:07:45.417Z,2.20
2018-11-27T16:10:16.719Z,2.10
2018-11-27T16:12:45.761Z,2.00
2018-11-27T16:15:17.311Z,2.00
2018-11-27T16:17:45.642Z,1.90
2018-11-27T16:20:15.186Z,1.80
2018-11-27T16:22:44.339Z,1.80
2018-11-27T16:25:14.261Z,1.70
2018-11-27T16:27:42.509Z,1.60
2018-11-27T16:30:13.170Z,1.50
2018-11-27T16:32:41.468Z,1.50
2018-11-27T16:35:10.739Z,1.40
2018-11-27T16:37:39.399Z,1.40
2018-11-27T16:40:13.839Z,1.30
2018-11-27T16:42:42.103Z,1.20
2018-11-27T16:45:16.379Z,1.20
2018-11-27T16:47:44.941Z,1.10
2018-11-27T16:50:14.573Z,1.00
2018-11-27T16:52:43.695Z,1.00
2018-11-27T16:55:13.726Z,1.00
2018-11-27T16:57:42.000Z,0.90
2018-11-27T17:00:19.022Z,0.90
2018-11-27T17:02:47.780Z,0.80
2018-11-27T17:05:16.049Z,0.70
2018-11-27T17:07:44.355Z,0.70
2018-11-27T17:10:14.686Z,0.60
2018-11-27T17:12:43.366Z,0.50
2018-11-27T17:15:14.274Z,0.50
2018-11-27T17:17:42.794Z,0.40
2018-11-27T17:20:18.786Z,0.40
2018-11-27T17:22:47.095Z,0.40
2018-11-27T17:25:15.399Z,0.40
2018-11-27T17:27:43.916Z,0.30
2018-11-27T17:30:15.642Z,0.30
2018-11-27T17:32:43.981Z,0.20
2018-11-27T17:35:13.190Z,0.20
2018-11-27T17:37:41.759Z,0.20
2018-11-27T17:40:11.723Z,0.10
2018-11-27T17:42:40.067Z,0.00
2018-11-27T17:45:11.452Z,0.00
2018-11-27T17:47:39.823Z,-0.10
2018-11-27T17:50:14.291Z,-0.10
2018-11-27T17:52:42.589Z,-0.20
2018-11-27T17:55:11.689Z,-0.20
2018-11-27T17:57:40.064Z,-0.30
2018-11-27T18:00:15.610Z,-0.40
2018-11-27T18:02:45.486Z,-0.50
2018-11-27T18:05:13.828Z,-0.50
2018-11-27T18:07:42.109Z,-0.50
2018-11-27T18:10:11.136Z,-0.50
2018-11-27T18:12:39.478Z,-0.60
2018-11-27T18:15:11.664Z,-0.70
2018-11-27T18:17:40.053Z,-0.70
2018-11-27T18:20:09.562Z,-0.80
2018-11-27T18:22:37.903Z,-0.80
2018-11-27T18:25:08.518Z,-0.80
2018-11-27T18:27:36.824Z,-0.90
2018-11-27T18:30:09.186Z,-0.90
2018-11-27T18:32:40.170Z,-0.90
2018-11-27T18:35:15.949Z,-0.90
2018-11-27T18:37:46.697Z,-1.00
2018-11-27T18:40:15.545Z,-1.00
2018-11-27T18:42:44.131Z,-1.00
2018-11-27T18:45:18.443Z,-1.00
2018-11-27T18:47:47.978Z,-1.00
2018-11-27T18:50:16.805Z,-1.00
2018-11-27T18:52:45.580Z,-1.00
2018-11-27T18:55:15.844Z,-1.00
2018-11-27T18:57:44.960Z,-1.00
2018-11-27T19:00:16.315Z,-1.10
2018-11-27T19:02:44.660Z,-1.10
2018-11-27T19:05:13.081Z,-1.20
2018-11-27T19:07:41.678Z,-1.20
2018-11-27T19:10:11.580Z,-1.30
2018-11-27T19:12:40.280Z,-1.30
2018-11-27T19:15:15.409Z,-1.40
2018-11-27T19:17:44.659Z,-1.40
2018-11-27T19:20:13.897Z,-1.50
2018-11-27T19:22:42.264Z,-1.50
2018-11-27T19:25:14.646Z,-1.60
2018-11-27T19:27:42.973Z,-1.60
2018-11-27T19:30:16.064Z,-1.70
2018-11-27T19:32:41.035Z,-1.70
2018-11-27T19:35:10.713Z,-1.80
2018-11-27T19:37:39.096Z,-1.80
2018-11-27T19:40:10.816Z,-1.80
2018-11-27T19:42:39.220Z,-1.80
2018-11-27T19:45:09.760Z,-1.80
2018-11-27T19:47:38.640Z,-1.80
2018-11-27T19:50:09.521Z,-1.80
2018-11-27T19:52:37.968Z,-1.80
2018-11-27T19:55:08.911Z,-1.80
2018-11-27T19:57:37.447Z,-1.80
2018-11-27T20:00:25.681Z,-1.80
2018-11-27T20:02:54.391Z,-1.80
2018-11-27T20:05:24.162Z,-1.80
2018-11-27T20:07:53.144Z,-1.90
2018-11-27T20:10:21.540Z,-1.90
2018-11-27T20:12:50.045Z,-2.00
2018-11-27T20:15:27.380Z,-2.00
2018-11-27T20:17:56.199Z,-2.10
2018-11-27T20:20:25.837Z,-2.10
2018-11-27T20:22:55.167Z,-2.10
2018-11-27T20:25:23.899Z,-2.10
2018-11-27T20:27:53.564Z,-2.20
2018-11-27T20:30:26.578Z,-2.20
2018-11-27T20:32:56.124Z,-2.10
2018-11-27T20:35:24.538Z,-2.00
2018-11-27T20:37:53.786Z,-1.90
2018-11-27T20:40:22.105Z,-1.90
2018-11-27T20:42:50.543Z,-1.90
2018-11-27T20:45:21.779Z,-1.80
2018-11-27T20:47:51.734Z,-1.80
2018-11-27T20:50:21.023Z,-1.80
2018-11-27T20:52:49.312Z,-1.70
2018-11-27T20:55:17.871Z,-1.60
2018-11-27T20:57:56.534Z,-1.60
2018-11-27T21:00:28.542Z,-1.60
2018-11-27T21:02:58.503Z,-1.60
2018-11-27T21:05:26.826Z,-1.60
2018-11-27T21:07:55.244Z,-1.60
2018-11-27T21:10:23.574Z,-1.60
2018-11-27T21:12:51.837Z,-1.60
2018-11-27T21:15:20.274Z,-1.60
2018-11-27T21:17:48.631Z,-1.60
2018-11-27T21:20:19.495Z,-1.60
2018-11-27T21:22:46.629Z,-1.60
2018-11-27T21:25:19.157Z,-1.60
2018-11-27T21:27:52.138Z,-1.60
2018-11-27T21:30:20.528Z,-1.60
2018-11-27T21:32:48.898Z,-1.60
2018-11-27T21:35:17.489Z,-1.60
2018-11-27T21:37:45.851Z,-1.50
2018-11-27T21:40:15.094Z,-1.50
2018-11-27T21:42:44.783Z,-1.50
2018-11-27T21:45:18.343Z,-1.50
2018-11-27T21:47:47.262Z,-1.50
2018-11-27T21:50:16.623Z,-1.50
2018-11-27T21:52:45.779Z,-1.50
2018-11-27T21:55:14.769Z,-1.50
2018-11-27T21:57:43.199Z,-1.60
2018-11-27T22:00:13.954Z,-1.60
2018-11-27T22:02:42.317Z,-1.70
2018-11-27T22:05:11.019Z,-1.70
2018-11-27T22:07:39.411Z,-1.60
2018-11-27T22:10:09.443Z,-1.70
2018-11-27T22:12:37.732Z,-1.70
2018-11-27T22:15:09.015Z,-1.70
2018-11-27T22:17:37.299Z,-1.70
2018-11-27T22:20:07.434Z,-1.60
2018-11-27T22:22:35.697Z,-1.70
2018-11-27T22:25:04.170Z,-1.60
2018-11-27T22:27:32.455Z,-1.60
2018-11-27T22:30:00.764Z,-1.70
2018-11-27T22:32:31.751Z,-1.70
2018-11-27T22:35:05.113Z,-1.70
2018-11-27T22:37:33.479Z,-1.70
2018-11-27T22:40:02.297Z,-1.60
2018-11-27T22:42:30.778Z,-1.60
2018-11-27T22:44:59.102Z,-1.60
2018-11-27T22:47:27.417Z,-1.60
2018-11-27T22:49:55.755Z,-1.60
2018-11-27T22:52:24.067Z,-1.60
2018-11-27T22:54:52.383Z,-1.70
2018-11-27T22:57:20.709Z,-1.70
2018-11-27T22:59:49.060Z,-1.70
2018-11-27T23:02:17.363Z,-1.70
2018-11-27T23:04:45.719Z,-1.70
2018-11-27T23:07:18.296Z,-1.70
2018-11-27T23:09:50.219Z,-1.70
2018-11-27T23:12:18.552Z,-1.70
2018-11-27T23:14:46.849Z,-1.70
2018-11-27T23:17:15.131Z,-1.70
2018-11-27T23:19:45.073Z,-1.70
2018-11-27T23:22:13.381Z,-1.70
2018-11-27T23:24:41.671Z,-1.70
2018-11-27T23:27:10.017Z,-1.70
2018-11-27T23:29:38.371Z,-1.70
2018-11-27T23:32:06.707Z,-1.80
2018-11-27T23:34:35.126Z,-1.80
2018-11-27T23:37:03.421Z,-1.80
2018-11-27T23:39:31.651Z,-1.90
2018-11-27T23:41:59.990Z,-1.80
2018-11-27T23:44:28.249Z,-1.80
2018-11-27T23:46:56.539Z,-1.80
2018-11-27T23:49:24.820Z,-1.90
2018-11-27T23:51:53.117Z,-1.90
2018-11-27T23:54:21.428Z,-1.90
2018-11-27T23:56:49.738Z,-1.80
2018-11-27T23:59:18.040Z,-1.80
